Time;durP1;ratioP1;P1;durP2;ratioP2;P2;SDS_P1;SDS_P2;PMS_P1;PMS_P2;Temp;Humidity;BMP_temperature;BMP_pressure;BME280_temperature;BME280_humidity;BME280_pressure;Samples;Min_cycle;Max_cycle;Signal;HPM_P1;HPM_P2
2022/09/16 00:00:46;;;;;;;3.23;2.93;;;;;;;14.76;74.62;98998.28;4964582;28;20724;-76
2022/09/16 00:03:12;;;;;;;3.83;3.40;;;;;;;14.76;74.71;98994.81;4966072;28;20192;-77
2022/09/16 00:05:47;;;;;;;3.92;3.47;;;;;;;14.75;74.66;98993.16;4965380;28;20273;-76
2022/09/16 00:08:13;;;;;;;3.70;3.30;;;;;;;14.72;74.53;98988.97;4965386;28;20183;-76
2022/09/16 00:10:41;;;;;;;4.90;3.67;;;;;;;14.69;74.73;98989.25;4964434;28;20216;-77
2022/09/16 00:13:07;;;;;;;3.53;3.22;;;;;;;14.63;74.73;98991.59;4963527;28;20689;-76
2022/09/16 00:15:32;;;;;;;3.90;3.17;;;;;;;14.59;74.90;98994.53;4963890;28;20228;-76
2022/09/16 00:17:58;;;;;;;3.30;3.00;;;;;;;14.60;75.07;99001.47;4965871;28;20203;-77
2022/09/16 00:20:24;;;;;;;3.90;3.55;;;;;;;14.63;74.92;98996.91;4964097;28;20214;-76
2022/09/16 00:22:49;;;;;;;4.20;3.67;;;;;;;14.64;74.82;99002.06;4964342;28;20204;-77
2022/09/16 00:25:15;;;;;;;4.60;2.63;;;;;;;14.64;74.83;98999.41;4966101;28;20181;-76
2022/09/16 00:27:40;;;;;;;5.47;3.30;;;;;;;14.65;74.73;98997.59;4963927;28;20193;-76
2022/09/16 00:30:09;;;;;;;3.80;3.50;;;;;;;14.63;74.60;98994.25;4963909;28;20594;-76
2022/09/16 00:32:35;;;;;;;4.03;3.63;;;;;;;14.61;74.60;98997.06;4962970;28;20375;-76
2022/09/16 00:35:00;;;;;;;5.17;3.97;;;;;;;14.62;74.53;98995.22;4965039;28;20452;-76
2022/09/16 00:37:26;;;;;;;11.10;4.27;;;;;;;14.61;74.72;98997.06;4966643;28;20192;-76
2022/09/16 00:39:51;;;;;;;7.10;5.80;;;;;;;14.58;74.66;98994.66;4963879;28;20226;-76
2022/09/16 00:42:18;;;;;;;7.17;5.30;;;;;;;14.51;74.93;98990.88;4965096;28;20215;-77
2022/09/16 00:44:54;;;;;;;6.13;4.35;;;;;;;14.47;75.17;98994.75;4965282;28;20204;-75
2022/09/16 00:47:34;;;;;;;4.90;4.03;;;;;;;14.40;75.39;98986.56;4964523;28;20199;-76
2022/09/16 00:50:21;;;;;;;5.05;4.60;;;;;;;14.30;75.67;98986.53;4963954;28;20222;-76
2022/09/16 00:52:46;;;;;;;4.25;3.85;;;;;;;14.22;76.07;98989.03;4962090;28;20568;-76
2022/09/16 00:55:21;;;;;;;5.30;4.30;;;;;;;14.23;76.07;98981.91;4964706;28;20198;-77
2022/09/16 00:57:47;;;;;;;8.40;4.28;;;;;;;14.25;76.06;98985.28;4964874;28;20198;-76
2022/09/16 01:00:13;;;;;;;5.78;4.68;;;;;;;14.27;76.13;98985.97;4964070;28;20223;-77
2022/09/16 01:02:41;;;;;;;4.25;3.95;;;;;;;14.30;76.18;98988.34;4964645;28;20452;-76
2022/09/16 01:05:14;;;;;;;4.60;4.20;;;;;;;14.36;76.39;98979.88;4963901;28;20381;-76
2022/09/16 01:07:43;;;;;;;4.07;3.67;;;;;;;14.43;76.14;98985.44;4964269;28;20193;-76
2022/09/16 01:10:11;;;;;;;4.90;4.50;;;;;;;14.49;75.96;98982.25;4965003;28;20720;-77
2022/09/16 01:12:38;;;;;;;4.10;3.70;;;;;;;14.54;75.83;98985.34;4962753;28;20255;-76
2022/09/16 01:15:05;;;;;;;5.30;4.28;;;;;;;14.58;75.72;98984.94;4963834;28;20192;-76
2022/09/16 01:17:42;;;;;;;4.53;3.85;;;;;;;14.61;75.58;98983.84;4966668;28;20254;-76
2022/09/16 01:20:26;;;;;;;5.60;4.20;;;;;;;14.62;75.57;98990.78;4965271;28;20390;-76
2022/09/16 01:23:35;;;;;;;3.63;3.28;;;;;;;14.58;75.77;98987.59;4964717;28;20984;-76
2022/09/16 01:26:27;;;;;;;6.43;4.07;;;;;;;14.54;75.61;98986.19;4956184;28;20673;-76
2022/09/16 01:29:30;;;;;;;4.35;3.80;;;;;;;14.52;76.04;98985.47;4965729;28;20935;-76
2022/09/16 01:32:19;;;;;;;5.03;3.45;;;;;;;14.54;75.81;98980.88;4961395;28;20411;-77
2022/09/16 01:34:50;;;;;;;4.20;3.80;;;;;;;14.58;75.72;98978.78;4966609;28;20402;-76
2022/09/16 01:37:32;;;;;;;4.75;4.35;;;;;;;14.58;75.60;98979.66;4977498;28;20231;-76
2022/09/16 01:40:19;;;;;;;4.43;3.60;;;;;;;14.53;75.48;98983.69;4617216;28;10001019;-76
2022/09/16 01:42:59;;;;;;;5.20;3.30;;;;;;;14.52;75.79;98971.41;4963892;28;20565;-76
2022/09/16 01:45:36;;;;;;;4.90;3.25;;;;;;;14.51;75.88;98975.84;4961557;28;20469;-76
2022/09/16 01:48:10;;;;;;;3.70;3.40;;;;;;;14.49;75.60;98977.78;4964119;28;20270;-76
2022/09/16 01:50:51;;;;;;;4.28;3.88;;;;;;;14.51;75.86;98977.66;4963114;28;20204;-76
2022/09/16 01:53:22;;;;;;;7.28;4.10;;;;;;;14.54;75.73;98980.88;4964530;28;20188;-76
2022/09/16 01:55:53;;;;;;;4.15;3.75;;;;;;;14.59;75.53;98975.19;4961386;28;20196;-76
2022/09/16 01:58:44;;;;;;;4.30;3.90;;;;;;;14.64;75.46;98978.25;4965585;28;20224;-77
2022/09/16 02:01:38;;;;;;;5.20;4.80;;;;;;;14.64;75.55;98969.50;4956909;28;20585;-75
2022/09/16 02:04:16;;;;;;;6.88;4.80;;;;;;;14.64;75.55;98972.16;4998480;23;20231;-77
2022/09/16 02:06:45;;;;;;;7.25;4.35;;;;;;;14.62;75.62;98963.53;4972363;28;20184;-79
2022/09/16 02:09:21;;;;;;;7.72;5.10;;;;;;;14.59;75.69;98967.28;4993120;28;20743;-77
2022/09/16 02:11:49;;;;;;;4.82;4.35;;;;;;;14.58;76.14;98968.22;4996214;28;20207;-77
2022/09/16 02:14:25;;;;;;;6.55;5.20;;;;;;;14.58;76.17;98958.50;4985053;28;20647;-78
2022/09/16 02:17:06;;;;;;;5.07;4.63;;;;;;;14.57;76.27;98961.28;4981112;28;20217;-77
2022/09/16 02:19:42;;;;;;;6.90;4.40;;;;;;;14.59;76.28;98960.16;4996205;28;20183;-77
2022/09/16 02:22:12;;;;;;;6.03;5.07;;;;;;;14.62;76.40;98960.88;4974263;28;20192;-79
2022/09/16 02:24:41;;;;;;;5.25;4.80;;;;;;;14.64;76.21;98956.28;4986346;28;20226;-78
2022/09/16 02:27:11;;;;;;;5.40;4.90;;;;;;;14.64;76.46;98949.19;4982782;28;20182;-78
2022/09/16 02:29:42;;;;;;;7.10;5.03;;;;;;;14.58;76.67;98955.00;4982474;28;20387;-78
2022/09/16 02:32:09;;;;;;;5.60;4.68;;;;;;;14.56;76.66;98955.16;4964261;28;20191;-80
2022/09/16 02:34:41;;;;;;;6.32;5.70;;;;;;;14.57;76.91;98953.34;4983771;28;20751;-79
2022/09/16 02:37:17;;;;;;;5.95;5.35;;;;;;;14.61;76.95;98957.41;4989876;28;20575;-78
2022/09/16 02:39:46;;;;;;;5.55;5.05;;;;;;;14.68;76.71;98963.78;4977011;28;20184;-78
2022/09/16 02:42:12;;;;;;;6.10;5.05;;;;;;;14.75;76.71;98956.13;4984055;28;20194;-78
2022/09/16 02:44:38;;;;;;;5.10;4.60;;;;;;;14.79;76.56;98947.78;4978663;28;20208;-78
2022/09/16 02:47:04;;;;;;;7.97;4.97;;;;;;;14.85;76.57;98949.00;4985404;28;20198;-78
2022/09/16 02:49:44;;;;;;;6.27;5.67;;;;;;;14.89;76.46;98947.78;4978601;28;20503;-78
2022/09/16 02:52:12;;;;;;;9.25;5.72;;;;;;;14.94;76.27;98956.13;4973894;28;20180;-78
2022/09/16 02:55:15;;;;;;;5.30;4.80;;;;;;;14.99;76.45;98943.31;4976332;28;20211;-78
2022/09/16 02:57:41;;;;;;;7.18;4.57;;;;;;;15.02;75.99;98942.19;4979189;28;20431;-78
2022/09/16 03:00:07;;;;;;;4.30;3.90;;;;;;;15.05;76.22;98936.63;4980531;28;20514;-78
2022/09/16 03:02:33;;;;;;;5.10;4.45;;;;;;;15.08;76.07;98933.69;4986090;28;20184;-78
2022/09/16 03:04:59;;;;;;;12.38;5.70;;;;;;;15.10;76.11;98918.50;4983159;28;20185;-78
2022/09/16 03:07:25;;;;;;;5.38;4.88;;;;;;;15.12;75.96;98918.34;4983679;28;20184;-78
2022/09/16 03:09:51;;;;;;;5.90;4.60;;;;;;;15.12;75.85;98916.56;3943662;28;10016637;-79
2022/09/16 03:12:35;;;;;;;5.13;4.57;;;;;;;15.09;76.08;98910.69;4963187;28;20197;-79
2022/09/16 03:15:19;;;;;;;5.07;4.55;;;;;;;15.08;75.95;98911.69;4958453;28;20535;-79
2022/09/16 03:17:56;;;;;;;5.22;4.18;;;;;;;15.10;76.08;98912.38;4963628;28;20287;-78
2022/09/16 03:20:34;;;;;;;4.93;4.45;;;;;;;15.11;75.89;98908.75;4967495;28;20425;-78
2022/09/16 03:23:24;;;;;;;4.90;4.43;;;;;;;15.13;75.84;98906.81;4959979;28;20434;-78
2022/09/16 03:26:19;;;;;;;6.40;4.20;;;;;;;15.13;76.06;98902.34;4960240;28;20248;-79
2022/09/16 03:29:00;;;;;;;6.40;4.90;;;;;;;15.13;75.80;98902.34;4952505;28;20212;-78
2022/09/16 03:31:37;;;;;;;8.20;5.00;;;;;;;15.12;76.07;98894.53;4954276;28;20242;-78
2022/09/16 03:34:05;;;;;;;4.30;3.97;;;;;;;15.11;76.17;98896.34;4957452;28;20217;-78
2022/09/16 03:36:36;;;;;;;5.93;3.95;;;;;;;15.10;76.10;98894.69;4956692;28;20206;-79
2022/09/16 03:39:03;;;;;;;5.20;4.70;;;;;;;15.12;76.20;98900.69;4957925;28;20190;-79
2022/09/16 03:41:31;;;;;;;4.90;4.38;;;;;;;15.17;76.03;98898.41;4956608;28;20203;-78
2022/09/16 03:43:57;;;;;;;5.38;4.18;;;;;;;15.21;75.96;98899.81;4962837;28;20622;-78
2022/09/16 03:46:25;;;;;;;5.80;4.82;;;;;;;15.25;75.87;98895.06;4959530;28;20531;-80
2022/09/16 03:48:50;;;;;;;5.10;4.60;;;;;;;15.27;75.71;98893.94;4958835;28;20429;-78
2022/09/16 03:51:16;;;;;;;5.13;4.67;;;;;;;15.32;75.68;98896.16;4957649;28;20567;-78
2022/09/16 03:53:41;;;;;;;5.50;4.60;;;;;;;15.34;75.76;98898.63;4956905;28;20224;-78
2022/09/16 03:56:07;;;;;;;5.50;4.47;;;;;;;15.35;75.63;98897.69;4959935;28;20190;-78
2022/09/16 03:58:32;;;;;;;4.77;4.30;;;;;;;15.36;75.72;98901.97;4956895;28;20220;-80
2022/09/16 04:00:57;;;;;;;4.57;4.17;;;;;;;15.36;75.82;98896.69;4958173;28;20287;-78
2022/09/16 04:03:23;;;;;;;4.73;4.30;;;;;;;15.33;75.93;98897.81;4958854;28;20230;-78
2022/09/16 04:06:08;;;;;;;5.37;4.90;;;;;;;15.28;76.00;98894.75;4957670;28;20195;-78
2022/09/16 04:08:34;;;;;;;6.10;4.68;;;;;;;15.27;76.09;98890.47;4960490;28;20248;-80
2022/09/16 04:11:02;;;;;;;4.83;3.93;;;;;;;15.27;76.25;98891.28;4969148;28;20225;-78
2022/09/16 04:13:32;;;;;;;5.18;4.68;;;;;;;15.26;76.20;98876.41;4961187;28;20460;-78
2022/09/16 04:15:59;;;;;;;4.57;4.18;;;;;;;15.27;76.32;98891.28;4965041;28;20201;-80
2022/09/16 04:18:24;;;;;;;7.07;4.97;;;;;;;15.29;76.48;98898.25;4958449;28;20792;-79
2022/09/16 04:20:50;;;;;;;4.80;4.40;;;;;;;15.31;76.38;98893.63;4960221;28;20240;-78
2022/09/16 04:23:15;;;;;;;5.83;5.20;;;;;;;15.35;76.37;98887.09;4957387;28;20798;-78
2022/09/16 04:25:41;;;;;;;5.13;4.63;;;;;;;15.37;76.30;98890.44;4959056;28;20201;-78
2022/09/16 04:28:07;;;;;;;4.40;3.60;;;;;;;15.40;76.34;98884.84;4959945;28;20224;-79
2022/09/16 04:30:32;;;;;;;5.20;4.43;;;;;;;15.44;76.37;98883.56;4963750;28;20768;-78
2022/09/16 04:32:58;;;;;;;5.30;4.80;;;;;;;15.45;76.36;98886.06;4951715;28;20466;-78
2022/09/16 04:35:24;;;;;;;5.20;4.70;;;;;;;15.43;76.27;98897.78;4948073;28;20245;-80
2022/09/16 04:37:50;;;;;;;5.63;5.13;;;;;;;15.39;76.57;98891.09;4957382;28;20179;-78
2022/09/16 04:40:16;;;;;;;6.05;5.45;;;;;;;15.37;76.69;98893.06;4958888;28;20445;-81
2022/09/16 04:42:47;;;;;;;5.77;4.93;;;;;;;15.36;76.85;98904.63;4958677;28;20878;-81
2022/09/16 04:45:13;;;;;;;7.78;5.90;;;;;;;15.35;76.94;98897.69;4960713;28;20232;-79
2022/09/16 04:47:38;;;;;;;5.33;4.93;;;;;;;15.36;77.08;98896.69;4956410;28;20554;-81
2022/09/16 04:50:05;;;;;;;12.30;5.90;;;;;;;15.33;76.98;98897.81;4957636;28;20217;-79
2022/09/16 04:52:30;;;;;;;6.63;5.35;;;;;;;15.31;76.99;98902.44;4959172;28;20200;-80
2022/09/16 04:54:56;;;;;;;5.93;5.23;;;;;;;15.28;77.27;98902.69;4966261;28;20185;-80
2022/09/16 04:57:21;;;;;;;7.40;5.33;;;;;;;15.29;77.36;98903.56;4965902;28;20218;-81
2022/09/16 04:59:46;;;;;;;8.30;6.10;;;;;;;15.29;77.40;98912.31;4960258;28;20264;-81
2022/09/16 05:02:12;;;;;;;5.90;5.30;;;;;;;15.32;77.58;98898.78;4960464;28;20331;-79
2022/09/16 05:04:37;;;;;;;8.47;6.80;;;;;;;15.37;77.71;98898.38;4958459;28;20454;-79
2022/09/16 05:07:03;;;;;;;8.63;5.87;;;;;;;15.37;77.97;98904.50;4958683;28;20562;-79
2022/09/16 05:09:28;;;;;;;6.53;5.27;;;;;;;15.39;78.10;98901.69;4955031;28;20690;-80
2022/09/16 05:11:53;;;;;;;5.73;5.13;;;;;;;15.41;77.79;98902.38;4953540;28;20273;-80
2022/09/16 05:14:19;;;;;;;7.63;5.63;;;;;;;15.37;77.80;98895.72;4953846;28;20694;-79
2022/09/16 05:16:45;;;;;;;7.20;5.50;;;;;;;15.34;78.05;98893.34;4953640;28;20198;-79
2022/09/16 05:19:12;;;;;;;5.90;5.30;;;;;;;15.28;78.14;98894.75;4953112;28;20211;-79
2022/09/16 05:21:38;;;;;;;7.07;5.75;;;;;;;15.27;78.21;98903.69;4950431;28;20264;-81
2022/09/16 05:24:09;;;;;;;6.43;5.80;;;;;;;15.28;78.29;98905.34;4951501;28;20450;-79
2022/09/16 05:26:36;;;;;;;7.20;5.97;;;;;;;15.32;78.13;98905.91;4954350;28;20194;-79
2022/09/16 05:29:05;;;;;;;6.40;5.80;;;;;;;15.32;78.15;98904.09;4954748;28;20197;-78
2022/09/16 05:31:33;;;;;;;7.60;6.90;;;;;;;15.35;78.24;98897.69;4952675;28;20202;-79
2022/09/16 05:34:01;;;;;;;8.15;6.70;;;;;;;15.34;78.22;98909.22;4954618;28;20214;-78
2022/09/16 05:36:29;;;;;;;7.55;6.55;;;;;;;15.33;78.29;98905.75;4958462;28;20186;-78
2022/09/16 05:38:55;;;;;;;6.15;5.50;;;;;;;15.36;78.30;98912.56;4956748;28;20247;-82
2022/09/16 05:41:21;;;;;;;14.53;6.53;;;;;;;15.39;78.31;98912.25;4954129;28;20194;-82
2022/09/16 05:43:46;;;;;;;7.70;5.30;;;;;;;15.41;78.27;98923.56;4952374;28;20516;-79
2022/09/16 05:46:17;;;;;;;11.87;6.10;;;;;;;15.43;78.27;98911.00;4957549;28;20206;-81
2022/09/16 05:48:42;;;;;;;8.07;5.60;;;;;;;15.44;78.20;98905.56;4957362;28;20193;-79
2022/09/16 05:51:10;;;;;;;10.83;6.33;;;;;;;15.42;78.09;98907.53;4974144;28;20260;-78
2022/09/16 05:53:35;;;;;;;8.52;5.70;;;;;;;15.42;78.51;98907.53;4963172;28;20209;-82
2022/09/16 05:56:09;;;;;;;6.50;5.77;;;;;;;15.47;78.30;98915.03;4963333;28;20193;-80
2022/09/16 05:58:35;;;;;;;6.25;5.75;;;;;;;15.45;78.49;98923.13;4979497;28;20193;-80
2022/09/16 06:01:16;;;;;;;8.95;6.53;;;;;;;15.44;78.64;98917.97;4965812;28;20193;-80
2022/09/16 06:03:43;;;;;;;7.38;6.68;;;;;;;15.42;78.59;98918.13;4966533;28;20240;-79
2022/09/16 06:06:18;;;;;;;8.20;6.38;;;;;;;15.46;78.88;98914.19;4965543;28;20188;-82
2022/09/16 06:08:44;;;;;;;7.05;6.38;;;;;;;15.49;78.73;98915.72;4964705;28;20229;-79
2022/09/16 06:11:11;;;;;;;7.10;5.50;;;;;;;15.51;78.74;98913.75;4962629;28;20217;-78
2022/09/16 06:13:37;;;;;;;7.32;6.30;;;;;;;15.53;78.64;98909.16;4961993;28;20201;-81
2022/09/16 06:16:03;;;;;;;6.32;5.70;;;;;;;15.58;78.57;98917.50;4961124;28;20474;-79
2022/09/16 06:18:30;;;;;;;6.60;4.78;;;;;;;15.57;78.46;98915.81;4956403;28;20791;-79
2022/09/16 06:20:57;;;;;;;8.20;5.82;;;;;;;15.61;78.70;98921.66;4957730;28;20178;-79
2022/09/16 06:23:23;;;;;;;6.03;5.43;;;;;;;15.64;78.53;98924.84;4954932;28;20629;-79
2022/09/16 06:25:58;;;;;;;8.52;5.28;;;;;;;15.68;78.62;98931.53;4957659;28;20181;-81
2022/09/16 06:28:24;;;;;;;7.95;6.88;;;;;;;15.70;78.52;98929.59;4961551;28;20223;-81
2022/09/16 06:31:01;;;;;;;6.63;6.00;;;;;;;15.74;78.51;98935.41;4960704;28;20230;-79
2022/09/16 06:33:27;;;;;;;6.50;5.95;;;;;;;15.78;78.54;98920.91;4959347;28;20337;-79
2022/09/16 06:35:52;;;;;;;7.15;6.45;;;;;;;15.80;78.45;98926.06;4963315;28;20194;-81
2022/09/16 06:38:17;;;;;;;6.70;6.00;;;;;;;15.80;78.53;98926.06;4961730;28;20198;-79
2022/09/16 06:40:43;;;;;;;6.07;5.57;;;;;;;15.82;78.70;98926.72;4956351;28;20215;-79
2022/09/16 06:43:08;;;;;;;7.00;6.30;;;;;;;15.83;78.50;98931.06;4962682;28;20904;-79
2022/09/16 06:45:34;;;;;;;8.10;6.37;;;;;;;15.85;78.72;98937.03;4960225;28;20206;-78
2022/09/16 06:47:59;;;;;;;6.73;6.10;;;;;;;15.89;78.69;98930.47;4954579;28;20689;-81
2022/09/16 06:50:25;;;;;;;8.07;7.27;;;;;;;15.95;78.80;98935.16;4951491;28;20461;-81
2022/09/16 06:52:50;;;;;;;6.37;5.77;;;;;;;15.97;78.86;98937.69;4952201;28;21060;-79
2022/09/16 06:55:16;;;;;;;7.37;6.17;;;;;;;15.98;78.85;98939.34;4951987;28;20439;-80
2022/09/16 06:57:41;;;;;;;7.37;6.67;;;;;;;15.95;78.71;98945.75;4952299;28;20200;-78
2022/09/16 07:00:07;;;;;;;9.93;6.17;;;;;;;15.92;78.97;98946.06;4977206;28;20635;-81
2022/09/16 07:02:35;;;;;;;7.18;5.75;;;;;;;15.89;78.87;98941.88;4983960;28;20184;-79
2022/09/16 07:05:01;;;;;;;9.07;7.95;;;;;;;15.86;79.10;98951.94;4979618;28;20208;-81
2022/09/16 07:07:30;;;;;;;12.40;9.02;;;;;;;15.83;79.08;98949.59;4989181;28;20199;-79
2022/09/16 07:09:56;;;;;;;12.23;9.80;;;;;;;15.81;79.16;98943.63;4980523;28;20361;-78
2022/09/16 07:12:21;;;;;;;13.60;10.93;;;;;;;15.82;79.21;98955.88;4981625;28;20247;-79
2022/09/16 07:14:46;;;;;;;10.00;8.90;;;;;;;15.80;79.23;98948.09;4976395;28;20197;-79
2022/09/16 07:17:12;;;;;;;10.90;9.80;;;;;;;15.82;79.24;98955.88;4977798;28;20192;-80
2022/09/16 07:19:37;;;;;;;13.30;10.50;;;;;;;15.78;79.24;98965.91;4976828;28;20232;-79
2022/09/16 07:22:03;;;;;;;11.83;9.80;;;;;;;15.76;79.31;98973.16;4978786;28;20682;-79
2022/09/16 07:24:28;;;;;;;16.50;11.33;;;;;;;15.74;79.48;98976.94;4976164;28;20206;-78
2022/09/16 07:26:53;;;;;;;11.53;9.70;;;;;;;15.69;78.97;98977.41;4972423;28;20309;-78
2022/09/16 07:29:19;;;;;;;9.30;8.40;;;;;;;15.65;79.17;98981.28;4970332;28;20665;-80
2022/09/16 07:31:45;;;;;;;10.50;9.40;;;;;;;15.58;78.82;98991.63;4973944;28;20191;-80
2022/09/16 07:34:11;;;;;;;10.10;7.30;;;;;;;15.52;78.88;98986.88;4975075;28;20808;-78
2022/09/16 07:36:45;;;;;;;11.20;8.82;;;;;;;15.48;78.40;98989.00;4986830;28;20201;-80
2022/09/16 07:39:13;;;;;;;8.23;6.78;;;;;;;15.41;78.27;98990.53;4982658;28;20764;-81
2022/09/16 07:41:42;;;;;;;7.95;7.15;;;;;;;15.39;78.30;98986.38;4979641;28;20186;-78
2022/09/16 07:44:11;;;;;;;7.68;6.95;;;;;;;15.32;78.19;98982.63;4978808;28;20473;-78
2022/09/16 07:46:37;;;;;;;9.07;7.57;;;;;;;15.33;78.40;98998.34;4977556;28;20196;-80
2022/09/16 07:49:05;;;;;;;7.77;7.03;;;;;;;15.35;78.33;98993.75;4979320;28;20189;-77
2022/09/16 07:51:30;;;;;;;8.30;6.25;;;;;;;15.38;78.11;98995.28;4977187;28;20227;-78
2022/09/16 07:54:01;;;;;;;6.17;5.57;;;;;;;15.41;77.87;99003.78;4979422;28;20759;-78
2022/09/16 07:56:28;;;;;;;7.95;6.10;;;;;;;15.44;77.96;99010.59;4975128;28;20445;-78
2022/09/16 07:58:54;;;;;;;7.32;6.55;;;;;;;15.46;77.95;99016.59;4973671;28;20215;-79
2022/09/16 08:01:21;;;;;;;7.05;6.35;;;;;;;15.47;77.87;99007.66;4975438;28;20200;-80
2022/09/16 08:03:46;;;;;;;8.05;5.20;;;;;;;15.49;77.89;99011.81;5017192;23;20902;-77
2022/09/16 08:06:15;;;;;;;6.10;4.87;;;;;;;15.52;77.54;99012.53;4955063;28;20629;-77
2022/09/16 08:08:41;;;;;;;4.13;3.75;;;;;;;15.54;77.20;99002.63;4961215;28;20198;-76
2022/09/16 08:11:07;;;;;;;4.80;3.97;;;;;;;15.55;77.24;99012.22;4962326;28;20221;-75
2022/09/16 08:13:36;;;;;;;6.15;4.50;;;;;;;15.62;76.84;99021.28;4961478;28;20226;-77
2022/09/16 08:16:05;;;;;;;5.15;4.18;;;;;;;15.70;76.66;99018.78;4960460;28;20244;-77
2022/09/16 08:18:30;;;;;;;4.38;3.80;;;;;;;15.81;76.42;99023.06;4963001;28;20699;-75
2022/09/16 08:20:56;;;;;;;4.23;3.70;;;;;;;15.87;75.87;99022.47;4961789;28;20217;-76
2022/09/16 08:23:22;;;;;;;4.77;3.67;;;;;;;15.98;75.65;99024.94;4962815;28;20639;-76
2022/09/16 08:25:58;;;;;;;5.67;3.43;;;;;;;16.10;75.47;99033.53;4961214;28;20809;-76
2022/09/16 08:28:24;;;;;;;3.25;2.78;;;;;;;16.20;75.05;99033.47;4962424;28;20545;-76
2022/09/16 08:30:50;;;;;;;3.38;1.85;;;;;;;16.19;73.89;99042.41;4964520;28;20212;-76
2022/09/16 08:33:19;;;;;;;2.83;2.40;;;;;;;16.15;74.15;99045.34;4961959;28;20198;-76
2022/09/16 08:36:05;;;;;;;1.98;1.70;;;;;;;16.16;74.29;99051.47;4961486;28;20310;-77
2022/09/16 08:38:32;;;;;;;3.55;2.20;;;;;;;16.18;74.15;99057.47;4961568;28;20968;-76
2022/09/16 08:41:41;;;;;;;3.00;2.35;;;;;;;16.18;73.87;99041.56;4962801;28;20201;-76
2022/09/16 08:44:43;;;;;;;3.50;2.20;;;;;;;16.21;73.87;99054.53;4923788;28;20226;-76
2022/09/16 08:47:21;;;;;;;2.95;2.08;;;;;;;16.22;73.74;99055.34;4956724;28;20183;-75
2022/09/16 08:49:49;;;;;;;2.15;1.90;;;;;;;16.28;73.56;99050.31;4964359;28;20198;-75
2022/09/16 08:52:36;;;;;;;2.63;2.40;;;;;;;16.37;73.43;99051.25;4962634;28;20848;-76
2022/09/16 08:55:07;;;;;;;1.95;1.83;;;;;;;16.47;73.03;99054.69;4962443;28;20297;-75
2022/09/16 08:57:41;;;;;;;2.10;1.90;;;;;;;16.56;72.77;99056.41;4961614;28;20535;-76
2022/09/16 09:00:14;;;;;;;3.25;1.75;;;;;;;16.71;72.02;99066.50;4964322;28;20298;-76
2022/09/16 09:02:57;;;;;;;4.68;2.78;;;;;;;16.80;71.41;99068.31;4963501;28;20350;-76
2022/09/16 09:05:35;;;;;;;3.38;1.92;;;;;;;16.83;71.13;99061.88;4959314;28;20733;-76
2022/09/16 09:08:24;;;;;;;3.08;2.15;;;;;;;16.84;70.69;99063.53;4961971;28;20183;-77
2022/09/16 09:11:16;;;;;;;4.18;2.70;;;;;;;16.85;70.88;99057.22;4961792;28;20221;-76
2022/09/16 09:14:00;;;;;;;2.88;2.55;;;;;;;16.87;70.76;99053.44;4961386;28;20221;-75
2022/09/16 09:16:47;;;;;;;3.05;2.75;;;;;;;16.93;70.90;99063.47;4962080;28;20205;-77
2022/09/16 09:19:28;;;;;;;3.47;2.17;;;;;;;16.99;70.50;99048.75;4960961;28;20293;-76
2022/09/16 09:22:12;;;;;;;2.88;2.67;;;;;;;17.08;70.04;99044.34;4960072;28;20201;-77
2022/09/16 09:25:07;;;;;;;3.15;2.85;;;;;;;17.20;69.95;99072.28;4961753;28;20205;-75
2022/09/16 09:27:46;;;;;;;3.70;2.55;;;;;;;17.24;69.44;99063.06;4960129;28;20202;-75
2022/09/16 09:30:21;;;;;;;4.03;2.55;;;;;;;17.30;69.16;99062.44;4099943;28;10001789;-76
2022/09/16 09:32:49;;;;;;;3.83;3.08;;;;;;;17.31;68.96;99057.94;4960198;28;20199;-77
2022/09/16 09:35:46;;;;;;;3.42;2.50;;;;;;;17.38;68.67;99059.84;4961927;28;20232;-75
2022/09/16 09:38:41;;;;;;;3.70;3.30;;;;;;;17.41;68.81;99064.84;4958851;28;20617;-75
2022/09/16 09:41:14;;;;;;;3.05;2.78;;;;;;;17.46;67.88;99056.41;4962145;28;20203;-76
2022/09/16 09:44:00;;;;;;;3.30;3.00;;;;;;;17.48;67.94;99063.25;4961198;28;20348;-77
2022/09/16 09:46:37;;;;;;;3.88;3.58;;;;;;;17.53;68.13;99059.31;4960377;28;20204;-77
2022/09/16 09:49:38;;;;;;;5.00;3.40;;;;;;;17.59;67.64;99058.66;4962124;28;20527;-76
2022/09/16 09:52:03;;;;;;;3.88;3.38;;;;;;;17.68;67.46;99063.03;4946117;28;20680;-76
2022/09/16 09:54:33;;;;;;;9.27;3.90;;;;;;;17.75;67.64;99069.41;4965026;28;20224;-74
2022/09/16 09:57:11;;;;;;;3.08;2.70;;;;;;;17.78;67.15;99062.94;4958609;28;20273;-75
2022/09/16 09:59:48;;;;;;;2.47;2.28;;;;;;;17.74;67.09;99065.09;4959647;28;20658;-76
2022/09/16 10:02:20;;;;;;;2.80;2.60;;;;;;;17.66;66.65;99057.91;4961429;28;20511;-76
2022/09/16 10:04:46;;;;;;;3.10;2.90;;;;;;;17.61;66.85;99062.00;4960220;28;20745;-76
2022/09/16 10:07:14;;;;;;;4.30;2.90;;;;;;;17.61;66.89;99062.00;4958093;28;20188;-77
2022/09/16 10:09:53;;;;;;;4.18;2.70;;;;;;;17.66;66.81;99067.66;4958863;28;20944;-75
2022/09/16 10:12:31;;;;;;;2.72;2.53;;;;;;;17.66;66.06;99060.56;4959920;28;20213;-77
2022/09/16 10:14:57;;;;;;;3.60;3.30;;;;;;;17.55;64.46;99057.28;4963142;28;20272;-77
2022/09/16 10:17:24;;;;;;;3.33;3.05;;;;;;;17.57;64.84;99057.97;4957263;28;20285;-75
2022/09/16 10:19:55;;;;;;;3.25;2.83;;;;;;;17.63;64.72;99057.34;4964356;28;20203;-75
2022/09/16 10:22:25;;;;;;;3.03;2.72;;;;;;;17.79;64.06;99059.31;4966175;28;20194;-76
2022/09/16 10:24:59;;;;;;;3.67;2.83;;;;;;;17.88;63.90;99053.91;4962389;28;20350;-75
2022/09/16 10:27:28;;;;;;;3.28;2.92;;;;;;;17.96;63.35;99060.22;4959742;28;20207;-75
2022/09/16 10:30:09;;;;;;;4.90;3.50;;;;;;;17.96;62.75;99049.59;4960599;28;20213;-76
2022/09/16 10:32:45;;;;;;;2.50;2.30;;;;;;;17.94;61.79;99051.59;4964658;28;20205;-76
2022/09/16 10:35:18;;;;;;;3.78;3.42;;;;;;;17.95;62.32;99058.56;4965276;28;20315;-77
2022/09/16 10:37:55;;;;;;;3.50;3.20;;;;;;;18.00;62.37;99059.75;4960632;28;20200;-77
2022/09/16 10:40:22;;;;;;;3.88;2.72;;;;;;;18.05;62.39;99059.28;4963630;28;20559;-77
2022/09/16 10:42:50;;;;;;;3.33;3.03;;;;;;;18.02;61.21;99055.13;4964072;28;20674;-76
2022/09/16 10:45:24;;;;;;;3.80;3.50;;;;;;;17.95;61.75;99054.09;4963646;28;20218;-76
2022/09/16 10:47:53;;;;;;;3.08;2.88;;;;;;;17.87;61.76;99062.00;4962086;28;20245;-77
2022/09/16 10:50:19;;;;;;;3.15;2.80;;;;;;;17.80;61.65;99061.00;4961847;28;20220;-77
2022/09/16 10:52:47;;;;;;;2.80;2.60;;;;;;;17.71;62.15;99052.09;4963552;28;20197;-76
2022/09/16 10:55:18;;;;;;;4.07;3.60;;;;;;;17.70;62.15;99058.41;4963626;28;20686;-76
2022/09/16 10:57:45;;;;;;;5.15;4.00;;;;;;;17.74;62.07;99057.13;4961309;28;20201;-78
2022/09/16 11:00:19;;;;;;;3.92;2.53;;;;;;;17.81;62.08;99063.47;4965332;28;20186;-76
2022/09/16 11:03:22;;;;;;;5.53;4.10;;;;;;;17.87;61.35;99057.53;4962186;28;20205;-76
2022/09/16 11:06:05;;;;;;;5.82;3.47;;;;;;;17.94;61.11;99049.78;4961822;28;20669;-75
2022/09/16 11:08:52;;;;;;;3.72;3.22;;;;;;;18.03;60.95;99055.97;4964697;28;20265;-76
2022/09/16 11:11:39;;;;;;;3.85;3.50;;;;;;;17.86;59.43;99055.88;4958487;28;20739;-75
2022/09/16 11:14:13;;;;;;;3.85;3.55;;;;;;;17.69;59.70;99060.22;4958275;28;20239;-77
2022/09/16 11:16:53;;;;;;;5.30;3.70;;;;;;;17.47;59.72;99069.56;4957630;28;20210;-76
2022/09/16 11:19:42;;;;;;;3.55;3.25;;;;;;;17.37;60.09;99070.63;4959722;28;20544;-78
2022/09/16 11:22:16;;;;;;;4.07;3.00;;;;;;;17.33;60.44;99062.13;4957199;28;20756;-78
2022/09/16 11:25:11;;;;;;;4.80;4.10;;;;;;;17.24;61.33;99055.91;4956741;28;21483;-77
2022/09/16 11:27:48;;;;;;;4.15;3.55;;;;;;;17.23;61.02;99053.44;4938984;28;20838;-77
2022/09/16 11:30:17;;;;;;;3.60;3.30;;;;;;;17.25;61.06;99057.59;4958128;28;20441;-75
2022/09/16 11:32:57;;;;;;;5.32;3.63;;;;;;;17.31;61.00;99058.81;4956849;28;20536;-76
2022/09/16 11:35:35;;;;;;;4.00;3.60;;;;;;;17.42;61.04;99060.38;4954939;28;20221;-76
2022/09/16 11:38:37;;;;;;;3.88;3.47;;;;;;;17.48;60.93;99065.91;4956748;28;20214;-76
2022/09/16 11:41:21;;;;;;;3.97;3.10;;;;;;;17.55;60.68;99059.94;4957187;28;20668;-77
2022/09/16 11:44:04;;;;;;;5.07;3.47;;;;;;;17.62;60.89;99063.66;4955192;28;20235;-76
2022/09/16 11:46:54;;;;;;;3.28;2.90;;;;;;;17.68;60.70;99065.69;4956687;28;20209;-76
2022/09/16 11:49:42;;;;;;;5.60;4.03;;;;;;;17.74;60.89;99065.09;4958296;28;20235;-77
2022/09/16 11:52:27;;;;;;;4.00;3.33;;;;;;;17.79;60.86;99070.75;4957716;28;20279;-76
2022/09/16 11:55:02;;;;;;;3.58;3.28;;;;;;;17.84;60.72;99076.44;4955696;28;20244;-75